sensor_id;sensor_type;location;lat;lon;timestamp;pressure;altitude;pressure_sealevel;temperature;humidity
24422;BME280;12600;53.326;-6.298;2023-02-18T00:00:19;101233.00;;;13.84;78.83
24422;BME280;12600;53.326;-6.298;2023-02-18T00:03:10;101222.78;;;13.76;79.44
24422;BME280;12600;53.326;-6.298;2023-02-18T00:05:59;101233.75;;;13.76;79.26
24422;BME280;12600;53.326;-6.298;2023-02-18T00:08:49;101212.13;;;13.74;79.12
24422;BME280;12600;53.326;-6.298;2023-02-18T00:11:40;101213.94;;;13.87;78.95
24422;BME280;12600;53.326;-6.298;2023-02-18T00:14:29;101245.78;;;13.88;79.02
24422;BME280;12600;53.326;-6.298;2023-02-18T00:17:19;101225.44;;;13.89;79.68
24422;BME280;12600;53.326;-6.298;2023-02-18T00:20:09;101153.47;;;13.39;80.12
24422;BME280;12600;53.326;-6.298;2023-02-18T00:22:58;101193.84;;;13.69;80.14
24422;BME280;12600;53.326;-6.298;2023-02-18T00:25:48;101208.13;;;13.80;79.91
24422;BME280;12600;53.326;-6.298;2023-02-18T00:28:39;101214.81;;;13.65;80.99
24422;BME280;12600;53.326;-6.298;2023-02-18T00:31:30;101201.91;;;13.66;81.21
24422;BME280;12600;53.326;-6.298;2023-02-18T00:34:21;101218.75;;;13.73;81.48
24422;BME280;12600;53.326;-6.298;2023-02-18T00:37:10;101214.81;;;13.65;82.22
24422;BME280;12600;53.326;-6.298;2023-02-18T00:39:59;101192.22;;;13.68;82.55
24422;BME280;12600;53.326;-6.298;2023-02-18T00:42:50;101202.69;;;13.58;82.89
24422;BME280;12600;53.326;-6.298;2023-02-18T00:45:40;101174.78;;;13.64;82.86
24422;BME280;12600;53.326;-6.298;2023-02-18T00:48:30;101213.50;;;13.63;83.54
24422;BME280;12600;53.326;-6.298;2023-02-18T00:51:20;101189.78;;;13.67;83.35
24422;BME280;12600;53.326;-6.298;2023-02-18T00:54:09;101201.91;;;13.66;83.07
24422;BME280;12600;53.326;-6.298;2023-02-18T00:56:59;101197.38;;;13.70;83.63
24422;BME280;12600;53.326;-6.298;2023-02-18T00:59:48;101171.88;;;13.69;83.66
24422;BME280;12600;53.326;-6.298;2023-02-18T01:02:39;101182.50;;;13.62;84.58
24422;BME280;12600;53.326;-6.298;2023-02-18T01:05:28;101188.78;;;13.63;85.25
24422;BME280;12600;53.326;-6.298;2023-02-18T01:08:19;101182.00;;;13.60;84.99
24422;BME280;12600;53.326;-6.298;2023-02-18T01:11:11;101187.97;;;13.62;85.63
24422;BME280;12600;53.326;-6.298;2023-02-18T01:14:01;101175.22;;;13.58;86.32
24422;BME280;12600;53.326;-6.298;2023-02-18T01:16:51;101154.22;;;13.62;85.91
24422;BME280;12600;53.326;-6.298;2023-02-18T01:19:41;101162.47;;;13.62;86.14
24422;BME280;12600;53.326;-6.298;2023-02-18T01:22:31;101175.13;;;13.71;86.24
24422;BME280;12600;53.326;-6.298;2023-02-18T01:25:20;101178.28;;;13.56;86.93
24422;BME280;12600;53.326;-6.298;2023-02-18T01:28:12;101165.22;;;13.62;86.68
24422;BME280;12600;53.326;-6.298;2023-02-18T01:31:05;101181.69;;;13.62;86.79
24422;BME280;12600;53.326;-6.298;2023-02-18T01:33:55;101194.13;;;13.59;87.11
24422;BME280;12600;53.326;-6.298;2023-02-18T01:36:45;101187.53;;;13.69;87.16
24422;BME280;12600;53.326;-6.298;2023-02-18T01:39:37;101190.63;;;13.76;87.24
24422;BME280;12600;53.326;-6.298;2023-02-18T01:42:28;101168.31;;;13.69;87.45
24422;BME280;12600;53.326;-6.298;2023-02-18T01:45:49;101166.75;;;13.46;88.13
24422;BME280;12600;53.326;-6.298;2023-02-18T01:48:42;101176.38;;;13.65;87.32
24422;BME280;12600;53.326;-6.298;2023-02-18T01:51:37;101208.69;;;13.68;87.82
24422;BME280;12600;53.326;-6.298;2023-02-18T01:54:31;101166.88;;;13.71;87.72
24422;BME280;12600;53.326;-6.298;2023-02-18T01:57:24;101161.41;;;13.71;87.49
24422;BME280;12600;53.326;-6.298;2023-02-18T02:00:18;101166.88;;;13.71;88.31
24422;BME280;12600;53.326;-6.298;2023-02-18T02:03:08;101164.59;;;13.65;88.39
24422;BME280;12600;53.326;-6.298;2023-02-18T02:05:58;101161.41;;;13.80;87.92
24422;BME280;12600;53.326;-6.298;2023-02-18T02:08:49;101154.13;;;13.76;87.95
24422;BME280;12600;53.326;-6.298;2023-02-18T02:12:24;101164.09;;;13.63;88.96
24422;BME280;12600;53.326;-6.298;2023-02-18T02:15:29;101186.09;;;13.71;88.95
24422;BME280;12600;53.326;-6.298;2023-02-18T02:18:42;101156.84;;;13.67;89.18
24422;BME280;12600;53.326;-6.298;2023-02-18T02:22:39;101178.03;;;13.75;88.89
24422;BME280;12600;53.326;-6.298;2023-02-18T02:25:45;101167.84;;;13.76;88.80
24422;BME280;12600;53.326;-6.298;2023-02-18T02:29:10;101184.38;;;13.84;88.73
24422;BME280;12600;53.326;-6.298;2023-02-18T02:32:43;101172.06;;;13.73;89.37
24422;BME280;12600;53.326;-6.298;2023-02-18T02:35:39;101193.56;;;13.80;89.04
24422;BME280;12600;53.326;-6.298;2023-02-18T02:38:36;101189.50;;;13.77;89.79
24422;BME280;12600;53.326;-6.298;2023-02-18T02:41:44;101147.97;;;13.70;90.11
24422;BME280;12600;53.326;-6.298;2023-02-18T02:44:41;101152.66;;;13.78;89.73
24422;BME280;12600;53.326;-6.298;2023-02-18T02:47:40;101168.50;;;13.73;89.99
24422;BME280;12600;53.326;-6.298;2023-02-18T02:50:42;101178.44;;;13.60;90.18
24422;BME280;12600;53.326;-6.298;2023-02-18T02:53:36;101183.81;;;13.65;89.88
24422;BME280;12600;53.326;-6.298;2023-02-18T02:56:28;101208.88;;;13.72;89.76
24422;BME280;12600;53.326;-6.298;2023-02-18T02:59:22;101214.22;;;13.77;89.69
24422;BME280;12600;53.326;-6.298;2023-02-18T03:02:24;101231.81;;;13.76;90.33
24422;BME280;12600;53.326;-6.298;2023-02-18T03:05:25;101205.38;;;13.80;89.81
24422;BME280;12600;53.326;-6.298;2023-02-18T03:08:32;101231.63;;;13.64;90.35
24422;BME280;12600;53.326;-6.298;2023-02-18T03:11:27;101231.09;;;13.62;90.86
24422;BME280;12600;53.326;-6.298;2023-02-18T03:14:26;101216.81;;;13.74;89.96
24422;BME280;12600;53.326;-6.298;2023-02-18T03:17:23;101220.28;;;13.57;90.18
24422;BME280;12600;53.326;-6.298;2023-02-18T03:20:23;101224.06;;;13.47;90.27
24422;BME280;12600;53.326;-6.298;2023-02-18T03:23:17;101228.75;;;13.47;90.16
24422;BME280;12600;53.326;-6.298;2023-02-18T03:26:10;101246.31;;;13.37;90.12
24422;BME280;12600;53.326;-6.298;2023-02-18T03:29:02;101216.13;;;13.37;88.91
24422;BME280;12600;53.326;-6.298;2023-02-18T03:31:58;101222.16;;;13.48;88.24
24422;BME280;12600;53.326;-6.298;2023-02-18T03:34:52;101218.06;;;13.36;88.03
24422;BME280;12600;53.326;-6.298;2023-02-18T03:37:49;101216.88;;;13.29;87.91
24422;BME280;12600;53.326;-6.298;2023-02-18T03:40:42;101227.13;;;13.46;87.55
24422;BME280;12600;53.326;-6.298;2023-02-18T03:43:33;101229.09;;;13.45;87.11
24422;BME280;12600;53.326;-6.298;2023-02-18T03:46:22;101233.41;;;13.37;86.85
24422;BME280;12600;53.326;-6.298;2023-02-18T03:49:13;101234.03;;;13.34;87.03
24422;BME280;12600;53.326;-6.298;2023-02-18T03:52:03;101240.59;;;13.25;86.37
24422;BME280;12600;53.326;-6.298;2023-02-18T03:54:54;101261.72;;;13.24;85.62
24422;BME280;12600;53.326;-6.298;2023-02-18T03:57:43;101228.72;;;13.15;84.57
24422;BME280;12600;53.326;-6.298;2023-02-18T04:00:34;101231.69;;;13.05;84.01
24422;BME280;12600;53.326;-6.298;2023-02-18T04:03:23;101240.13;;;13.09;83.68
24422;BME280;12600;53.326;-6.298;2023-02-18T04:06:12;101247.16;;;13.01;83.81
24422;BME280;12600;53.326;-6.298;2023-02-18T04:09:02;101237.50;;;13.04;84.82
24422;BME280;12600;53.326;-6.298;2023-02-18T04:11:55;101228.81;;;12.88;85.49
24422;BME280;12600;53.326;-6.298;2023-02-18T04:14:45;101221.53;;;12.83;85.43
24422;BME280;12600;53.326;-6.298;2023-02-18T04:17:35;101215.41;;;12.86;85.33
24422;BME280;12600;53.326;-6.298;2023-02-18T04:20:25;101215.03;;;12.79;85.51
24422;BME280;12600;53.326;-6.298;2023-02-18T04:23:14;101224.00;;;12.71;85.59
24422;BME280;12600;53.326;-6.298;2023-02-18T04:26:03;101225.22;;;12.65;85.91
24422;BME280;12600;53.326;-6.298;2023-02-18T04:28:53;101212.94;;;12.76;86.24
24422;BME280;12600;53.326;-6.298;2023-02-18T04:31:42;101194.16;;;12.70;86.53
24422;BME280;12600;53.326;-6.298;2023-02-18T04:34:33;101230.63;;;12.70;86.16
24422;BME280;12600;53.326;-6.298;2023-02-18T04:37:23;101201.44;;;12.74;85.55
24422;BME280;12600;53.326;-6.298;2023-02-18T04:40:12;101202.03;;;12.85;85.52
24422;BME280;12600;53.326;-6.298;2023-02-18T04:43:02;101206.81;;;12.79;85.57
24422;BME280;12600;53.326;-6.298;2023-02-18T04:45:51;101223.34;;;12.88;85.59
24422;BME280;12600;53.326;-6.298;2023-02-18T04:48:41;101205.44;;;12.91;85.44
24422;BME280;12600;53.326;-6.298;2023-02-18T04:51:32;101213.56;;;12.96;85.11
24422;BME280;12600;53.326;-6.298;2023-02-18T04:54:21;101212.56;;;12.92;84.55
24422;BME280;12600;53.326;-6.298;2023-02-18T04:57:11;101211.06;;;12.85;84.05
24422;BME280;12600;53.326;-6.298;2023-02-18T05:00:00;101211.81;;;12.77;84.06
24422;BME280;12600;53.326;-6.298;2023-02-18T05:02:53;101220.28;;;12.89;82.94
24422;BME280;12600;53.326;-6.298;2023-02-18T05:05:43;101215.41;;;12.86;82.94
24422;BME280;12600;53.326;-6.298;2023-02-18T05:08:34;101221.09;;;12.90;82.37
24422;BME280;12600;53.326;-6.298;2023-02-18T05:11:23;101230.44;;;12.89;82.34
24422;BME280;12600;53.326;-6.298;2023-02-18T05:14:12;101215.41;;;12.86;82.41
24422;BME280;12600;53.326;-6.298;2023-02-18T05:17:02;101216.47;;;12.77;83.24
24422;BME280;12600;53.326;-6.298;2023-02-18T05:19:51;101216.34;;;12.82;83.57
24422;BME280;12600;53.326;-6.298;2023-02-18T05:22:40;101216.66;;;12.80;83.03
24422;BME280;12600;53.326;-6.298;2023-02-18T05:25:31;101216.78;;;12.75;83.49
24422;BME280;12600;53.326;-6.298;2023-02-18T05:28:20;101215.47;;;12.73;83.88
24422;BME280;12600;53.326;-6.298;2023-02-18T05:31:09;101221.25;;;12.71;83.47
24422;BME280;12600;53.326;-6.298;2023-02-18T05:33:59;101207.56;;;12.71;82.54
24422;BME280;12600;53.326;-6.298;2023-02-18T05:36:48;101209.06;;;12.77;82.17
24422;BME280;12600;53.326;-6.298;2023-02-18T05:39:37;101220.38;;;12.62;81.71
24422;BME280;12600;53.326;-6.298;2023-02-18T05:42:28;101204.09;;;12.66;81.44
24422;BME280;12600;53.326;-6.298;2023-02-18T05:45:17;101213.41;;;12.78;80.48
24422;BME280;12600;53.326;-6.298;2023-02-18T05:48:07;101204.19;;;12.74;80.15
24422;BME280;12600;53.326;-6.298;2023-02-18T05:50:57;101201.69;;;12.64;79.08
24422;BME280;12600;53.326;-6.298;2023-02-18T05:53:46;101194.66;;;12.72;78.74
24422;BME280;12600;53.326;-6.298;2023-02-18T05:56:35;101186.25;;;12.68;77.48
24422;BME280;12600;53.326;-6.298;2023-02-18T05:59:27;101201.25;;;12.71;77.43
24422;BME280;12600;53.326;-6.298;2023-02-18T06:02:16;101212.28;;;12.79;76.80
24422;BME280;12600;53.326;-6.298;2023-02-18T06:05:06;101219.41;;;12.80;76.76
24422;BME280;12600;53.326;-6.298;2023-02-18T06:07:56;101228.63;;;12.84;76.90
24422;BME280;12600;53.326;-6.298;2023-02-18T06:10:45;101225.75;;;12.89;76.78
24422;BME280;12600;53.326;-6.298;2023-02-18T06:13:34;101232.69;;;12.87;77.15
24422;BME280;12600;53.326;-6.298;2023-02-18T06:16:25;101169.03;;;12.54;76.50
24422;BME280;12600;53.326;-6.298;2023-02-18T06:19:15;101225.31;;;12.74;77.12
24422;BME280;12600;53.326;-6.298;2023-02-18T06:22:05;101220.53;;;12.79;77.16
24422;BME280;12600;53.326;-6.298;2023-02-18T06:24:54;101233.31;;;12.84;77.28
24422;BME280;12600;53.326;-6.298;2023-02-18T06:27:43;101218.53;;;12.71;77.57
24422;BME280;12600;53.326;-6.298;2023-02-18T06:30:33;101227.03;;;12.83;77.86
24422;BME280;12600;53.326;-6.298;2023-02-18T06:33:23;101224.63;;;12.68;78.84
24422;BME280;12600;53.326;-6.298;2023-02-18T06:36:13;101225.13;;;12.70;79.30
24422;BME280;12600;53.326;-6.298;2023-02-18T06:39:03;101211.66;;;12.60;79.54
24422;BME280;12600;53.326;-6.298;2023-02-18T06:41:53;101230.72;;;12.65;79.92
24422;BME280;12600;53.326;-6.298;2023-02-18T06:44:42;101230.53;;;12.62;80.00
24422;BME280;12600;53.326;-6.298;2023-02-18T06:47:31;101231.13;;;12.58;80.47
24422;BME280;12600;53.326;-6.298;2023-02-18T06:50:22;101229.59;;;12.66;80.21
24422;BME280;12600;53.326;-6.298;2023-02-18T06:53:12;101256.41;;;12.69;80.08
24422;BME280;12600;53.326;-6.298;2023-02-18T06:56:01;101269.50;;;12.72;79.77
24422;BME280;12600;53.326;-6.298;2023-02-18T06:58:50;101256.50;;;12.78;79.81
24422;BME280;12600;53.326;-6.298;2023-02-18T07:01:39;101260.34;;;12.77;79.63
24422;BME280;12600;53.326;-6.298;2023-02-18T07:04:28;101259.94;;;12.83;79.50
24422;BME280;12600;53.326;-6.298;2023-02-18T07:07:19;101248.56;;;12.76;79.09
24422;BME280;12600;53.326;-6.298;2023-02-18T07:10:09;101265.41;;;12.83;79.21
24422;BME280;12600;53.326;-6.298;2023-02-18T07:12:58;101270.50;;;12.76;79.87
24422;BME280;12600;53.326;-6.298;2023-02-18T07:15:47;101275.06;;;12.81;80.00
24422;BME280;12600;53.326;-6.298;2023-02-18T07:18:37;101276.00;;;12.76;80.65
24422;BME280;12600;53.326;-6.298;2023-02-18T07:21:26;101301.66;;;12.80;80.23
24422;BME280;12600;53.326;-6.298;2023-02-18T07:24:17;101299.75;;;12.67;81.54
24422;BME280;12600;53.326;-6.298;2023-02-18T07:27:06;101282.94;;;12.60;81.85
24422;BME280;12600;53.326;-6.298;2023-02-18T07:29:55;101316.00;;;12.64;82.37
24422;BME280;12600;53.326;-6.298;2023-02-18T07:32:45;101317.63;;;12.65;82.68
24422;BME280;12600;53.326;-6.298;2023-02-18T07:35:34;101326.00;;;12.59;83.12
24422;BME280;12600;53.326;-6.298;2023-02-18T07:38:24;101331.25;;;12.70;82.87
24422;BME280;12600;53.326;-6.298;2023-02-18T07:41:19;101335.28;;;12.72;82.88
24422;BME280;12600;53.326;-6.298;2023-02-18T07:44:08;101331.03;;;12.66;83.52
24422;BME280;12600;53.326;-6.298;2023-02-18T07:46:58;101334.06;;;12.78;83.12
24422;BME280;12600;53.326;-6.298;2023-02-18T07:49:48;101325.44;;;12.71;83.30
24422;BME280;12600;53.326;-6.298;2023-02-18T07:52:37;101345.84;;;12.79;83.69
24422;BME280;12600;53.326;-6.298;2023-02-18T07:55:27;101345.03;;;12.78;83.61
24422;BME280;12600;53.326;-6.298;2023-02-18T07:58:38;101334.25;;;12.82;83.68
24422;BME280;12600;53.326;-6.298;2023-02-18T08:01:27;101356.72;;;12.70;84.80
24422;BME280;12600;53.326;-6.298;2023-02-18T08:04:16;101349.50;;;12.74;84.69
24422;BME280;12600;53.326;-6.298;2023-02-18T08:07:06;101341.66;;;12.81;84.81
24422;BME280;12600;53.326;-6.298;2023-02-18T08:09:55;101350.44;;;12.70;84.40
24422;BME280;12600;53.326;-6.298;2023-02-18T08:12:44;101347.56;;;12.75;84.32
24422;BME280;12600;53.326;-6.298;2023-02-18T08:15:36;101331.66;;;12.63;84.12
24422;BME280;12600;53.326;-6.298;2023-02-18T08:18:26;101343.81;;;12.84;83.80
24422;BME280;12600;53.326;-6.298;2023-02-18T08:21:16;101345.53;;;12.80;83.19
24422;BME280;12600;53.326;-6.298;2023-02-18T08:24:06;101331.44;;;12.73;82.70
24422;BME280;12600;53.326;-6.298;2023-02-18T08:26:56;101356.59;;;12.89;83.10
24422;BME280;12600;53.326;-6.298;2023-02-18T08:29:48;101352.53;;;12.86;82.61
24422;BME280;12600;53.326;-6.298;2023-02-18T08:32:39;101364.50;;;12.91;82.04
24422;BME280;12600;53.326;-6.298;2023-02-18T08:35:28;101363.28;;;12.97;81.70
24422;BME280;12600;53.326;-6.298;2023-02-18T08:38:18;101372.41;;;13.06;80.91
24422;BME280;12600;53.326;-6.298;2023-02-18T08:41:08;101363.78;;;12.99;80.71
24422;BME280;12600;53.326;-6.298;2023-02-18T08:43:58;101375.56;;;12.99;nan
24422;BME280;12600;53.326;-6.298;2023-02-18T08:46:47;101386.94;;;13.06;79.33
24422;BME280;12600;53.326;-6.298;2023-02-18T08:49:38;101399.25;;;13.09;79.28
24422;BME280;12600;53.326;-6.298;2023-02-18T08:52:27;101392.22;;;13.16;78.38
24422;BME280;12600;53.326;-6.298;2023-02-18T08:55:17;101411.41;;;13.30;77.89
24422;BME280;12600;53.326;-6.298;2023-02-18T08:58:07;101399.69;;;13.38;77.67
24422;BME280;12600;53.326;-6.298;2023-02-18T09:01:00;101410.50;;;13.35;77.33
24422;BME280;12600;53.326;-6.298;2023-02-18T09:03:50;101422.38;;;13.30;77.51
24422;BME280;12600;53.326;-6.298;2023-02-18T09:06:41;101447.09;;;13.30;77.56
24422;BME280;12600;53.326;-6.298;2023-02-18T09:09:30;101441.50;;;13.35;77.43
24422;BME280;12600;53.326;-6.298;2023-02-18T09:12:19;101431.25;;;13.27;78.71
24422;BME280;12600;53.326;-6.298;2023-02-18T09:15:09;101440.28;;;13.14;79.55
24422;BME280;12600;53.326;-6.298;2023-02-18T09:17:58;101444.34;;;13.03;81.47
24422;BME280;12600;53.326;-6.298;2023-02-18T09:20:47;101441.22;;;12.96;82.27
24422;BME280;12600;53.326;-6.298;2023-02-18T09:23:38;101442.13;;;12.91;82.13
24422;BME280;12600;53.326;-6.298;2023-02-18T09:26:28;101452.19;;;12.96;83.15
24422;BME280;12600;53.326;-6.298;2023-02-18T09:29:17;101456.03;;;12.67;85.00
24422;BME280;12600;53.326;-6.298;2023-02-18T09:32:08;101442.31;;;12.67;84.35
24422;BME280;12600;53.326;-6.298;2023-02-18T09:35:07;101438.16;;;12.56;85.15
24422;BME280;12600;53.326;-6.298;2023-02-18T09:37:56;101440.91;;;12.70;84.66
24422;BME280;12600;53.326;-6.298;2023-02-18T09:40:51;101441.00;;;12.65;84.52
24422;BME280;12600;53.326;-6.298;2023-02-18T09:43:44;101446.00;;;12.76;84.45
24422;BME280;12600;53.326;-6.298;2023-02-18T09:46:38;101452.09;;;12.87;83.82
24422;BME280;12600;53.326;-6.298;2023-02-18T09:49:34;101450.56;;;12.95;83.29
24422;BME280;12600;53.326;-6.298;2023-02-18T09:52:27;101455.13;;;12.99;82.28
24422;BME280;12600;53.326;-6.298;2023-02-18T09:55:21;101453.50;;;13.12;82.10
24422;BME280;12600;53.326;-6.298;2023-02-18T09:58:15;101462.44;;;13.18;81.45
24422;BME280;12600;53.326;-6.298;2023-02-18T10:01:10;101461.84;;;13.21;80.70
24422;BME280;12600;53.326;-6.298;2023-02-18T10:04:04;101470.78;;;13.26;79.55
24422;BME280;12600;53.326;-6.298;2023-02-18T10:06:58;101468.84;;;13.27;78.70
24422;BME280;12600;53.326;-6.298;2023-02-18T10:09:51;101462.00;;;13.38;78.56
24422;BME280;12600;53.326;-6.298;2023-02-18T10:12:42;101481.84;;;13.49;78.36
24422;BME280;12600;53.326;-6.298;2023-02-18T10:15:33;101474.19;;;13.46;78.27
24422;BME280;12600;53.326;-6.298;2023-02-18T10:18:27;101477.84;;;13.55;77.81
24422;BME280;12600;53.326;-6.298;2023-02-18T10:21:25;101470.22;;;13.52;77.63
24422;BME280;12600;53.326;-6.298;2023-02-18T10:24:28;101481.22;;;13.52;77.69
24422;BME280;12600;53.326;-6.298;2023-02-18T10:27:23;101469.09;;;13.53;78.17
24422;BME280;12600;53.326;-6.298;2023-02-18T10:30:22;101480.88;;;13.67;78.05
24422;BME280;12600;53.326;-6.298;2023-02-18T10:33:33;101465.31;;;13.62;78.01
24422;BME280;12600;53.326;-6.298;2023-02-18T10:36:26;101476.88;;;13.73;77.43
24422;BME280;12600;53.326;-6.298;2023-02-18T10:39:40;101481.38;;;13.69;76.81
24422;BME280;12600;53.326;-6.298;2023-02-18T10:42:42;101485.72;;;13.70;76.59
24422;BME280;12600;53.326;-6.298;2023-02-18T10:45:43;101472.38;;;13.77;76.45
24422;BME280;12600;53.326;-6.298;2023-02-18T10:48:50;101470.03;;;13.84;76.35
24422;BME280;12600;53.326;-6.298;2023-02-18T10:51:49;101457.97;;;13.94;76.70
24422;BME280;12600;53.326;-6.298;2023-02-18T10:54:50;101454.19;;;14.04;76.33
24422;BME280;12600;53.326;-6.298;2023-02-18T10:57:46;101451.94;;;14.06;75.44
24422;BME280;12600;53.326;-6.298;2023-02-18T11:00:38;101455.59;;;14.23;75.16
24422;BME280;12600;53.326;-6.298;2023-02-18T11:03:42;101457.09;;;14.30;74.21
24422;BME280;12600;53.326;-6.298;2023-02-18T11:06:37;101437.09;;;14.38;74.24
24422;BME280;12600;53.326;-6.298;2023-02-18T11:09:33;101445.34;;;14.38;72.99
24422;BME280;12600;53.326;-6.298;2023-02-18T11:12:32;101442.38;;;14.34;71.78
24422;BME280;12600;53.326;-6.298;2023-02-18T11:15:25;101439.28;;;14.27;71.26
24422;BME280;12600;53.326;-6.298;2023-02-18T11:18:34;101439.63;;;14.34;71.11
24422;BME280;12600;53.326;-6.298;2023-02-18T11:21:33;101431.94;;;14.14;69.46
24422;BME280;12600;53.326;-6.298;2023-02-18T11:24:24;101447.41;;;14.32;69.46
24422;BME280;12600;53.326;-6.298;2023-02-18T11:27:22;101435.44;;;14.28;69.47
24422;BME280;12600;53.326;-6.298;2023-02-18T11:30:21;101425.09;;;14.34;69.75
24422;BME280;12600;53.326;-6.298;2023-02-18T11:33:17;101420.69;;;14.24;68.95
24422;BME280;12600;53.326;-6.298;2023-02-18T11:36:20;101426.53;;;14.31;68.52
24422;BME280;12600;53.326;-6.298;2023-02-18T11:39:19;101423.47;;;14.33;68.72
24422;BME280;12600;53.326;-6.298;2023-02-18T11:42:13;101424.63;;;14.40;69.08
24422;BME280;12600;53.326;-6.298;2023-02-18T11:45:04;101442.00;;;14.49;69.63
24422;BME280;12600;53.326;-6.298;2023-02-18T11:47:59;101432.72;;;14.37;69.90
24422;BME280;12600;53.326;-6.298;2023-02-18T11:50:51;101421.56;;;14.42;69.77
24422;BME280;12600;53.326;-6.298;2023-02-18T11:53:58;101435.59;;;14.32;69.35
24422;BME280;12600;53.326;-6.298;2023-02-18T11:56:56;101438.66;;;14.52;69.00
24422;BME280;12600;53.326;-6.298;2023-02-18T11:59:46;101458.50;;;14.49;68.31
24422;BME280;12600;53.326;-6.298;2023-02-18T12:02:37;101463.63;;;14.42;68.91
24422;BME280;12600;53.326;-6.298;2023-02-18T12:05:28;101458.44;;;14.63;69.22
24422;BME280;12600;53.326;-6.298;2023-02-18T12:08:24;101465.63;;;14.50;70.60
24422;BME280;12600;53.326;-6.298;2023-02-18T12:11:23;101456.19;;;14.43;73.02
24422;BME280;12600;53.326;-6.298;2023-02-18T12:14:18;101468.97;;;14.70;72.45
24422;BME280;12600;53.326;-6.298;2023-02-18T12:17:48;101457.19;;;14.78;70.50
24422;BME280;12600;53.326;-6.298;2023-02-18T12:20:53;101466.13;;;15.41;68.41
24422;BME280;12600;53.326;-6.298;2023-02-18T12:23:58;101465.00;;;16.11;65.80
24422;BME280;12600;53.326;-6.298;2023-02-18T12:27:03;101453.72;;;16.50;63.51
24422;BME280;12600;53.326;-6.298;2023-02-18T12:30:28;101467.47;;;16.76;60.92
24422;BME280;12600;53.326;-6.298;2023-02-18T12:33:30;101465.69;;;17.31;59.28
24422;BME280;12600;53.326;-6.298;2023-02-18T12:36:34;101482.31;;;17.94;57.04
24422;BME280;12600;53.326;-6.298;2023-02-18T12:39:48;101461.09;;;18.18;54.44
24422;BME280;12600;53.326;-6.298;2023-02-18T12:42:52;101464.19;;;18.05;53.75
24422;BME280;12600;53.326;-6.298;2023-02-18T12:46:16;101452.06;;;17.97;53.35
24422;BME280;12600;53.326;-6.298;2023-02-18T12:49:36;101454.94;;;17.59;53.72
24422;BME280;12600;53.326;-6.298;2023-02-18T12:52:37;101448.47;;;17.55;53.89
24422;BME280;12600;53.326;-6.298;2023-02-18T12:55:50;101444.38;;;17.11;54.22
24422;BME280;12600;53.326;-6.298;2023-02-18T12:58:53;101429.00;;;16.63;55.83
24422;BME280;12600;53.326;-6.298;2023-02-18T13:01:57;101449.09;;;16.16;57.32
24422;BME280;12600;53.326;-6.298;2023-02-18T13:04:54;101412.97;;;16.01;57.86
24422;BME280;12600;53.326;-6.298;2023-02-18T13:08:17;101410.38;;;15.87;59.43
24422;BME280;12600;53.326;-6.298;2023-02-18T13:11:22;101420.59;;;15.95;60.31
24422;BME280;12600;53.326;-6.298;2023-02-18T13:14:19;101409.25;;;15.97;60.98
24422;BME280;12600;53.326;-6.298;2023-02-18T13:17:12;101405.06;;;15.82;61.43
24422;BME280;12600;53.326;-6.298;2023-02-18T13:20:08;101417.53;;;15.88;61.76
24422;BME280;12600;53.326;-6.298;2023-02-18T13:23:02;101414.78;;;15.71;62.77
24422;BME280;12600;53.326;-6.298;2023-02-18T13:25:57;101412.34;;;15.52;63.88
24422;BME280;12600;53.326;-6.298;2023-02-18T13:28:57;101417.19;;;15.29;65.42
24422;BME280;12600;53.326;-6.298;2023-02-18T13:32:04;101424.47;;;15.25;66.34
24422;BME280;12600;53.326;-6.298;2023-02-18T13:35:08;101422.97;;;15.01;68.26
24422;BME280;12600;53.326;-6.298;2023-02-18T13:38:46;101418.81;;;14.73;71.04
24422;BME280;12600;53.326;-6.298;2023-02-18T13:41:41;101404.28;;;14.81;71.82
24422;BME280;12600;53.326;-6.298;2023-02-18T13:45:02;101409.16;;;14.84;72.08
24422;BME280;12600;53.326;-6.298;2023-02-18T13:47:53;101390.09;;;14.96;71.26
24422;BME280;12600;53.326;-6.298;2023-02-18T13:50:44;101380.72;;;15.06;70.82
24422;BME280;12600;53.326;-6.298;2023-02-18T13:53:35;101376.00;;;15.15;69.46
24422;BME280;12600;53.326;-6.298;2023-02-18T13:56:28;101380.44;;;15.33;68.68
24422;BME280;12600;53.326;-6.298;2023-02-18T13:59:22;101389.97;;;15.53;67.48
24422;BME280;12600;53.326;-6.298;2023-02-18T14:02:35;101388.16;;;15.23;68.02
24422;BME280;12600;53.326;-6.298;2023-02-18T14:05:38;101391.44;;;15.16;68.41
24422;BME280;12600;53.326;-6.298;2023-02-18T14:08:34;101376.88;;;15.24;68.16
24422;BME280;12600;53.326;-6.298;2023-02-18T14:11:49;101374.53;;;14.92;69.09
24422;BME280;12600;53.326;-6.298;2023-02-18T14:14:42;101370.81;;;14.96;69.48
24422;BME280;12600;53.326;-6.298;2023-02-18T14:17:41;101352.81;;;14.81;69.53
24422;BME280;12600;53.326;-6.298;2023-02-18T14:20:46;101379.63;;;14.67;70.21
24422;BME280;12600;53.326;-6.298;2023-02-18T14:23:54;101355.53;;;14.64;69.88
24422;BME280;12600;53.326;-6.298;2023-02-18T14:26:46;101335.91;;;14.48;70.47
24422;BME280;12600;53.326;-6.298;2023-02-18T14:29:36;101332.88;;;14.59;70.43
24422;BME280;12600;53.326;-6.298;2023-02-18T14:32:26;101345.47;;;14.60;70.60
24422;BME280;12600;53.326;-6.298;2023-02-18T14:35:26;101338.38;;;14.67;70.29
24422;BME280;12600;53.326;-6.298;2023-02-18T14:38:32;101327.34;;;14.59;70.33
24422;BME280;12600;53.326;-6.298;2023-02-18T14:41:40;101325.75;;;14.66;70.44
24422;BME280;12600;53.326;-6.298;2023-02-18T14:44:48;101338.25;;;14.81;69.77
24422;BME280;12600;53.326;-6.298;2023-02-18T14:47:58;101342.69;;;15.08;68.33
24422;BME280;12600;53.326;-6.298;2023-02-18T14:50:52;101333.63;;;15.16;67.02
24422;BME280;12600;53.326;-6.298;2023-02-18T14:53:44;101334.72;;;15.15;66.13
24422;BME280;12600;53.326;-6.298;2023-02-18T14:56:47;101360.16;;;15.03;66.14
24422;BME280;12600;53.326;-6.298;2023-02-18T14:59:41;101360.47;;;14.93;66.71
24422;BME280;12600;53.326;-6.298;2023-02-18T15:02:36;101358.19;;;14.95;66.57